createdAt,value
2019-04-07T00:02:23.693Z,12.40
2019-04-07T00:04:54.730Z,12.30
2019-04-07T00:07:25.118Z,12.30
2019-04-07T00:09:56.960Z,12.20
2019-04-07T00:12:26.904Z,12.20
2019-04-07T00:14:57.554Z,12.20
2019-04-07T00:17:27.333Z,12.10
2019-04-07T00:19:57.167Z,12.10
2019-04-07T00:22:27.073Z,12.10
2019-04-07T00:24:57.029Z,12.00
2019-04-07T00:27:26.918Z,11.90
2019-04-07T00:29:56.694Z,11.90
2019-04-07T00:32:27.352Z,11.80
2019-04-07T00:34:58.561Z,11.70
2019-04-07T00:37:29.578Z,11.60
2019-04-07T00:39:59.550Z,11.50
2019-04-07T00:42:30.015Z,11.40
2019-04-07T00:44:59.825Z,11.40
2019-04-07T00:47:29.698Z,11.30
2019-04-07T00:49:59.835Z,11.20
2019-04-07T00:52:29.955Z,11.10
2019-04-07T00:54:59.772Z,11.00
2019-04-07T00:57:30.509Z,11.00
2019-04-07T01:00:01.683Z,10.90
2019-04-07T01:02:32.233Z,10.80
2019-04-07T01:05:02.587Z,10.80
2019-04-07T01:07:32.489Z,10.70
2019-04-07T01:10:02.930Z,10.60
2019-04-07T01:12:33.646Z,10.60
2019-04-07T01:15:04.981Z,10.50
2019-04-07T01:17:34.897Z,10.50
2019-04-07T01:20:09.094Z,10.40
2019-04-07T01:22:39.833Z,10.40
2019-04-07T01:25:10.468Z,10.30
2019-04-07T01:27:40.341Z,10.30
2019-04-07T01:30:10.611Z,10.30
2019-04-07T01:32:40.953Z,10.20
2019-04-07T01:35:11.190Z,10.20
2019-04-07T01:37:41.754Z,10.10
2019-04-07T01:40:12.109Z,10.00
2019-04-07T01:42:59.918Z,10.00
2019-04-07T01:45:47.425Z,10.00
2019-04-07T01:48:19.275Z,9.90
2019-04-07T01:51:06.136Z,9.80
2019-04-07T01:53:54.684Z,9.80
2019-04-07T01:56:42.712Z,9.70
2019-04-07T01:59:30.259Z,9.60
2019-04-07T02:02:02.094Z,9.50
2019-04-07T02:04:34.731Z,9.40
2019-04-07T02:07:07.262Z,9.30
2019-04-07T02:09:55.640Z,9.30
2019-04-07T02:12:42.404Z,9.20
2019-04-07T02:15:20.122Z,9.10
2019-04-07T02:18:09.642Z,9.10
2019-04-07T02:20:52.148Z,9.00
2019-04-07T02:23:36.260Z,8.90
2019-04-07T02:26:23.829Z,8.90
2019-04-07T02:28:55.265Z,8.90
2019-04-07T02:31:29.870Z,8.80
2019-04-07T02:34:03.162Z,8.80
2019-04-07T02:36:37.676Z,8.80
2019-04-07T02:39:09.268Z,8.80
2019-04-07T02:41:40.959Z,8.80
2019-04-07T02:44:18.342Z,8.70
2019-04-07T02:47:06.461Z,8.70
2019-04-07T02:49:38.067Z,8.70
2019-04-07T02:52:09.515Z,8.60
2019-04-07T02:54:44.557Z,8.60
2019-04-07T02:57:16.170Z,8.60
2019-04-07T02:59:53.729Z,8.50
2019-04-07T03:02:41.992Z,8.50
2019-04-07T03:05:29.773Z,8.50
2019-04-07T03:08:19.099Z,8.40
2019-04-07T03:10:51.633Z,8.40
2019-04-07T03:13:26.243Z,8.40
2019-04-07T03:16:04.405Z,8.30
2019-04-07T03:18:50.806Z,8.30
2019-04-07T03:21:24.803Z,8.20
2019-04-07T03:24:06.186Z,8.20
2019-04-07T03:26:40.770Z,8.20
2019-04-07T03:29:18.301Z,8.20
2019-04-07T03:31:53.575Z,8.10
2019-04-07T03:34:40.212Z,8.10
2019-04-07T03:37:21.738Z,8.10
2019-04-07T03:39:48.153Z,8.00
2019-04-07T03:42:32.629Z,8.00
2019-04-07T03:45:04.461Z,8.00
2019-04-07T03:47:41.858Z,7.90
2019-04-07T03:50:29.472Z,7.90
2019-04-07T03:53:01.725Z,7.90
2019-04-07T03:55:39.147Z,7.90
2019-04-07T03:58:22.754Z,7.80
2019-04-07T04:01:13.755Z,7.80
2019-04-07T04:03:48.109Z,7.80
2019-04-07T04:06:28.848Z,7.80
2019-04-07T04:09:06.197Z,7.70
2019-04-07T04:11:53.918Z,7.70
2019-04-07T04:14:41.680Z,7.70
2019-04-07T04:17:11.604Z,7.70
2019-04-07T04:19:41.395Z,7.70
2019-04-07T04:22:11.613Z,7.60
2019-04-07T04:24:42.183Z,7.60
2019-04-07T04:27:12.874Z,7.60
2019-04-07T04:29:43.580Z,7.60
2019-04-07T04:32:13.549Z,7.60
2019-04-07T04:34:43.303Z,7.60
2019-04-07T04:37:14.739Z,7.60
2019-04-07T04:39:46.310Z,7.60
2019-04-07T04:42:16.318Z,7.60
2019-04-07T04:44:46.162Z,7.60
2019-04-07T04:47:16.697Z,7.60
2019-04-07T04:49:46.526Z,7.60
2019-04-07T04:52:16.295Z,7.60
2019-04-07T04:54:46.284Z,7.50
2019-04-07T04:57:16.255Z,7.50
2019-04-07T04:59:46.012Z,7.50
2019-04-07T05:02:16.011Z,7.50
2019-04-07T05:04:47.062Z,7.50
2019-04-07T05:07:16.906Z,7.60
2019-04-07T05:09:51.760Z,7.60
2019-04-07T05:12:18.389Z,7.60
2019-04-07T05:14:48.983Z,7.60
2019-04-07T05:17:18.934Z,7.70
2019-04-07T05:19:48.694Z,7.90
2019-04-07T05:22:18.492Z,8.40
2019-04-07T05:24:48.833Z,8.90
2019-04-07T05:27:18.718Z,9.60
2019-04-07T05:29:49.419Z,10.30
2019-04-07T05:32:19.276Z,11.10
2019-04-07T05:34:50.438Z,11.80
2019-04-07T05:37:22.065Z,12.60
2019-04-07T05:39:52.506Z,13.30
2019-04-07T05:42:22.593Z,13.90
2019-04-07T05:44:52.894Z,14.60
2019-04-07T05:47:23.450Z,15.20
2019-04-07T05:49:57.386Z,15.80
2019-04-07T05:52:27.206Z,16.40
2019-04-07T05:54:58.756Z,16.90
2019-04-07T05:57:33.364Z,17.50
2019-04-07T06:00:00.436Z,17.90
2019-04-07T06:02:32.592Z,18.40
2019-04-07T06:05:01.899Z,18.90
2019-04-07T06:07:34.842Z,19.40
2019-04-07T06:10:04.328Z,19.80
2019-04-07T06:12:34.889Z,20.30
2019-04-07T06:15:06.295Z,20.70
2019-04-07T06:17:36.748Z,21.10
2019-04-07T06:20:11.753Z,21.50
2019-04-07T06:22:40.530Z,21.80
2019-04-07T06:25:11.108Z,22.10
2019-04-07T06:27:44.842Z,22.40
2019-04-07T06:30:14.375Z,22.80
2019-04-07T06:32:44.744Z,23.10
2019-04-07T06:35:15.918Z,23.50
2019-04-07T06:37:46.353Z,23.80
2019-04-07T06:40:20.335Z,24.10
2019-04-07T06:42:47.850Z,24.30
2019-04-07T06:45:21.783Z,24.60
2019-04-07T06:47:56.283Z,24.90
2019-04-07T06:50:28.521Z,25.20
2019-04-07T06:53:00.050Z,25.40
2019-04-07T06:55:48.574Z,25.70
2019-04-07T06:58:40.811Z,26.10
2019-04-07T07:01:26.497Z,26.40
2019-04-07T07:03:58.559Z,26.60
2019-04-07T07:06:39.421Z,26.80
2019-04-07T07:09:14.781Z,27.00
2019-04-07T07:11:48.517Z,27.30
2019-04-07T07:14:32.952Z,27.60
2019-04-07T07:17:05.414Z,27.80
2019-04-07T07:19:41.193Z,28.00
2019-04-07T07:22:18.662Z,28.10
2019-04-07T07:24:49.105Z,28.30
2019-04-07T07:27:18.996Z,28.40
2019-04-07T07:29:52.512Z,28.50
2019-04-07T07:32:21.574Z,28.40
2019-04-07T07:34:52.094Z,28.20
2019-04-07T07:37:24.955Z,27.90
2019-04-07T07:39:54.308Z,27.70
2019-04-07T07:42:24.510Z,27.50
2019-04-07T07:44:54.393Z,27.20
2019-04-07T07:47:24.144Z,27.00
2019-04-07T07:49:53.913Z,26.70
2019-04-07T07:52:24.271Z,26.40
2019-04-07T07:54:55.197Z,26.30
2019-04-07T07:57:25.119Z,26.20
2019-04-07T07:59:55.286Z,26.10
2019-04-07T08:02:25.414Z,26.00
2019-04-07T08:04:59.172Z,25.80
2019-04-07T08:07:30.143Z,25.70
2019-04-07T08:10:00.691Z,25.50
2019-04-07T08:12:34.299Z,25.40
2019-04-07T08:15:03.165Z,25.20
2019-04-07T08:17:33.977Z,25.00
2019-04-07T08:20:05.694Z,24.80
2019-04-07T08:22:41.243Z,24.60
2019-04-07T08:25:08.697Z,24.40
2019-04-07T08:27:38.784Z,24.20
2019-04-07T08:30:11.851Z,24.20
2019-04-07T08:32:41.017Z,24.20
2019-04-07T08:35:11.376Z,23.90
2019-04-07T08:37:41.578Z,23.70
2019-04-07T08:40:11.983Z,23.50
2019-04-07T08:42:41.874Z,23.30
2019-04-07T08:45:12.480Z,23.30
2019-04-07T08:47:42.245Z,23.30
2019-04-07T08:50:12.565Z,23.30
2019-04-07T08:52:43.950Z,23.30
2019-04-07T08:55:13.980Z,23.40
2019-04-07T08:57:44.556Z,23.40
2019-04-07T09:00:17.349Z,23.30
2019-04-07T09:03:01.091Z,23.30
2019-04-07T09:05:23.096Z,23.40
2019-04-07T09:07:51.863Z,23.50
2019-04-07T09:10:23.430Z,23.50
2019-04-07T09:12:53.338Z,23.50
2019-04-07T09:15:24.834Z,23.50
2019-04-07T09:17:56.693Z,23.60
2019-04-07T09:20:43.549Z,23.70
2019-04-07T09:23:16.482Z,23.70
2019-04-07T09:26:03.884Z,23.80
2019-04-07T09:28:47.677Z,23.90
2019-04-07T09:31:19.635Z,23.80
2019-04-07T09:34:07.084Z,23.80
2019-04-07T09:36:41.875Z,23.70
2019-04-07T09:39:14.492Z,23.60
2019-04-07T09:41:46.029Z,23.40
2019-04-07T09:44:27.765Z,23.20
2019-04-07T09:47:02.104Z,23.00
2019-04-07T09:49:56.178Z,22.70
2019-04-07T09:52:33.909Z,22.50
2019-04-07T09:55:08.169Z,22.40
2019-04-07T09:57:50.326Z,22.30
2019-04-07T10:00:32.034Z,22.10
2019-04-07T10:03:12.935Z,22.00
2019-04-07T10:05:42.415Z,21.90
2019-04-07T10:08:26.068Z,21.60
2019-04-07T10:11:14.066Z,21.40
2019-04-07T10:14:03.339Z,21.10
2019-04-07T10:16:36.185Z,20.90
2019-04-07T10:19:10.962Z,20.60
2019-04-07T10:24:47.163Z,20.40
2019-04-07T10:27:22.377Z,20.30
2019-04-07T10:29:57.104Z,20.10
2019-04-07T10:32:38.427Z,20.00
2019-04-07T10:35:19.116Z,19.90
2019-04-07T10:37:53.511Z,19.90
2019-04-07T10:40:28.587Z,19.90
2019-04-07T10:43:12.661Z,19.80
2019-04-07T10:45:47.199Z,19.70
2019-04-07T10:48:19.093Z,19.70
2019-04-07T10:51:00.259Z,19.70
2019-04-07T10:53:37.424Z,19.70
2019-04-07T10:56:09.911Z,19.60
2019-04-07T10:58:44.622Z,19.50
2019-04-07T11:01:16.751Z,19.50
2019-04-07T11:03:53.699Z,19.60
2019-04-07T11:06:40.600Z,19.60
2019-04-07T11:09:18.836Z,19.70
2019-04-07T11:11:53.393Z,19.70
2019-04-07T11:14:41.624Z,19.70
2019-04-07T11:17:13.996Z,19.80
2019-04-07T11:19:48.870Z,19.80
2019-04-07T11:22:34.625Z,19.90
2019-04-07T11:25:09.758Z,19.90
2019-04-07T11:27:42.396Z,19.90
2019-04-07T11:30:29.162Z,19.90
2019-04-07T11:33:07.126Z,19.90
2019-04-07T11:35:42.174Z,20.00
2019-04-07T11:38:19.817Z,20.10
2019-04-07T11:40:52.450Z,20.10
2019-04-07T11:43:32.708Z,20.10
2019-04-07T11:46:16.492Z,20.10
2019-04-07T11:48:48.081Z,20.10
2019-04-07T11:51:19.583Z,20.10
2019-04-07T11:53:51.290Z,20.10
2019-04-07T11:56:22.987Z,20.10
2019-04-07T11:59:03.458Z,20.20
2019-04-07T12:01:34.989Z,20.30
2019-04-07T12:04:21.707Z,20.40
2019-04-07T12:06:56.406Z,20.50
2019-04-07T12:09:28.298Z,20.60
2019-04-07T12:12:05.900Z,20.60
2019-04-07T12:14:47.153Z,20.70
2019-04-07T12:17:40.252Z,20.70
2019-04-07T12:20:27.000Z,20.80
2019-04-07T12:22:57.139Z,20.70
2019-04-07T12:25:31.364Z,20.70
2019-04-07T12:28:14.609Z,20.70
2019-04-07T12:30:44.624Z,20.70
2019-04-07T12:33:23.313Z,20.70
2019-04-07T12:36:13.044Z,20.70
2019-04-07T12:38:47.848Z,20.70
2019-04-07T12:41:23.351Z,20.70
2019-04-07T12:44:04.515Z,20.70
2019-04-07T12:46:52.916Z,20.70
2019-04-07T12:49:34.957Z,20.90
2019-04-07T12:52:28.065Z,20.90
2019-04-07T12:55:17.494Z,21.00
2019-04-07T12:57:46.135Z,21.10
2019-04-07T13:00:51.736Z,21.10
2019-04-07T13:03:25.379Z,21.20
2019-04-07T13:06:12.909Z,21.20
2019-04-07T13:08:44.884Z,21.20
2019-04-07T13:11:25.410Z,21.20
2019-04-07T13:13:50.537Z,21.20
2019-04-07T13:16:26.413Z,21.30
2019-04-07T13:19:15.676Z,21.40
2019-04-07T13:21:48.061Z,21.40
2019-04-07T13:24:38.950Z,21.40
2019-04-07T13:27:22.132Z,21.40
2019-04-07T13:29:59.745Z,21.30
2019-04-07T13:32:41.810Z,21.30
2019-04-07T13:35:19.796Z,21.30
2019-04-07T13:38:09.432Z,21.20
2019-04-07T13:40:45.770Z,21.20
2019-04-07T13:43:19.172Z,21.10
2019-04-07T13:46:17.134Z,21.00
2019-04-07T13:48:59.894Z,20.90
2019-04-07T13:51:34.605Z,20.70
2019-04-07T13:54:18.958Z,20.70
2019-04-07T13:57:06.609Z,20.70
2019-04-07T13:59:56.525Z,20.70
2019-04-07T14:02:30.187Z,20.60
2019-04-07T14:05:04.578Z,20.60
2019-04-07T14:07:49.167Z,20.60
2019-04-07T14:10:31.835Z,20.60
2019-04-07T14:13:07.349Z,20.50
2019-04-07T14:15:45.565Z,20.50
2019-04-07T14:18:34.523Z,20.50
2019-04-07T14:21:06.208Z,20.50
2019-04-07T14:23:41.009Z,20.60
2019-04-07T14:26:24.718Z,20.50
2019-04-07T14:29:13.000Z,20.50
2019-04-07T14:31:47.982Z,20.40
2019-04-07T14:34:36.394Z,20.40
2019-04-07T14:37:10.864Z,20.30
2019-04-07T14:39:43.490Z,20.30
2019-04-07T14:42:24.150Z,20.20
2019-04-07T14:45:01.605Z,20.10
2019-04-07T14:47:34.313Z,20.00
2019-04-07T14:50:09.010Z,20.00
2019-04-07T14:52:53.523Z,20.00
2019-04-07T14:55:37.856Z,19.90
2019-04-07T14:58:13.073Z,19.80
2019-04-07T15:00:47.370Z,19.80
2019-04-07T15:03:17.489Z,19.70
2019-04-07T15:05:49.472Z,19.70
2019-04-07T15:08:21.594Z,19.60
2019-04-07T15:10:58.894Z,19.60
2019-04-07T15:13:29.725Z,19.50
2019-04-07T15:16:00.420Z,19.50
2019-04-07T15:18:30.387Z,19.40
2019-04-07T15:21:00.346Z,19.40
2019-04-07T15:23:32.268Z,19.40
2019-04-07T15:26:02.165Z,19.40
2019-04-07T15:28:33.094Z,19.40
2019-04-07T15:31:04.262Z,19.30
2019-04-07T15:33:35.172Z,19.20
2019-04-07T15:36:07.961Z,19.20
2019-04-07T15:38:39.566Z,19.10
2019-04-07T15:41:13.035Z,19.10
2019-04-07T15:43:40.102Z,19.00
2019-04-07T15:46:10.612Z,19.00
2019-04-07T15:48:40.534Z,19.00
2019-04-07T15:51:10.323Z,19.00
2019-04-07T15:53:40.441Z,19.00
2019-04-07T15:56:13.072Z,18.90
2019-04-07T15:58:42.006Z,18.90
2019-04-07T16:01:11.930Z,18.90
2019-04-07T16:03:42.086Z,18.90
2019-04-07T16:06:15.318Z,18.90
2019-04-07T16:08:44.622Z,18.90
2019-04-07T16:11:16.514Z,19.00
2019-04-07T16:13:46.305Z,19.00
2019-04-07T16:16:16.214Z,19.00
2019-04-07T16:18:46.641Z,19.00
2019-04-07T16:21:17.985Z,19.00
2019-04-07T16:23:52.591Z,18.90
2019-04-07T16:26:19.756Z,18.90
2019-04-07T16:28:49.682Z,18.80
2019-04-07T16:31:23.108Z,18.70
2019-04-07T16:33:51.853Z,18.70
2019-04-07T16:36:24.480Z,18.60
2019-04-07T16:38:54.931Z,18.60
2019-04-07T16:41:24.867Z,18.50
2019-04-07T16:43:55.027Z,18.50
2019-04-07T16:46:25.069Z,18.50
2019-04-07T16:48:55.616Z,18.40
2019-04-07T16:51:27.710Z,18.40
2019-04-07T16:53:56.964Z,18.40
2019-04-07T16:56:27.610Z,18.40
2019-04-07T16:58:57.404Z,18.40
2019-04-07T17:01:27.438Z,18.40
2019-04-07T17:03:59.242Z,18.30
2019-04-07T17:06:32.759Z,18.40
2019-04-07T17:09:00.960Z,18.30
2019-04-07T17:11:32.490Z,18.30
2019-04-07T17:14:03.221Z,18.30
2019-04-07T17:16:34.518Z,18.20
2019-04-07T17:19:05.178Z,18.20
2019-04-07T17:21:37.680Z,18.20
2019-04-07T17:24:07.592Z,18.20
2019-04-07T17:26:39.208Z,18.20
2019-04-07T17:29:09.182Z,18.20
2019-04-07T17:31:40.026Z,18.10
2019-04-07T17:34:11.775Z,18.10
2019-04-07T17:36:41.502Z,18.00
2019-04-07T17:39:24.862Z,18.00
2019-04-07T17:41:57.232Z,18.00
2019-04-07T17:44:29.670Z,17.90
2019-04-07T17:47:07.202Z,17.90
2019-04-07T17:49:58.855Z,17.90
2019-04-07T17:52:40.869Z,17.80
2019-04-07T17:55:18.778Z,17.80
2019-04-07T17:57:59.566Z,17.90
2019-04-07T18:00:31.170Z,17.80
2019-04-07T18:03:15.378Z,17.80
2019-04-07T18:06:03.802Z,17.80
2019-04-07T18:09:02.673Z,17.80
2019-04-07T18:11:29.275Z,17.80
2019-04-07T18:14:15.849Z,17.80
2019-04-07T18:17:04.471Z,17.80
2019-04-07T18:19:36.300Z,17.80
2019-04-07T18:22:08.176Z,17.80
2019-04-07T18:24:43.457Z,17.80
2019-04-07T18:27:17.141Z,17.70
2019-04-07T18:30:03.500Z,17.70
2019-04-07T18:32:41.786Z,17.70
2019-04-07T18:35:15.084Z,17.70
2019-04-07T18:37:55.788Z,17.70
2019-04-07T18:40:30.743Z,17.60
2019-04-07T18:43:16.594Z,17.60
2019-04-07T18:45:56.246Z,17.60
2019-04-07T18:48:28.782Z,17.60
2019-04-07T18:51:00.901Z,17.60
2019-04-07T18:53:32.444Z,17.50
2019-04-07T18:56:09.128Z,17.50
2019-04-07T18:58:51.060Z,17.50
2019-04-07T19:01:22.268Z,17.50
2019-04-07T19:03:58.323Z,17.40
2019-04-07T19:06:46.118Z,17.40
2019-04-07T19:09:14.819Z,17.40
2019-04-07T19:12:05.184Z,17.30
2019-04-07T19:14:44.293Z,17.20
2019-04-07T19:17:28.220Z,17.20
2019-04-07T19:20:05.363Z,17.10
2019-04-07T19:22:51.761Z,17.00
2019-04-07T19:25:35.610Z,17.00
2019-04-07T19:28:10.036Z,16.80
2019-04-07T19:30:43.670Z,16.80
2019-04-07T19:33:30.900Z,16.70
2019-04-07T19:36:05.881Z,16.60
2019-04-07T19:38:38.748Z,16.50
2019-04-07T19:41:23.209Z,16.40
2019-04-07T19:43:58.383Z,16.30
2019-04-07T19:46:43.689Z,16.20
2019-04-07T19:49:21.533Z,16.10
2019-04-07T19:51:50.874Z,16.00
2019-04-07T19:54:31.480Z,15.90
2019-04-07T19:57:11.653Z,15.80
2019-04-07T19:59:54.954Z,15.70
2019-04-07T20:02:35.999Z,15.60
2019-04-07T20:05:10.197Z,15.50
2019-04-07T20:07:59.295Z,15.40
2019-04-07T20:10:40.134Z,15.30
2019-04-07T20:13:14.188Z,15.10
2019-04-07T20:15:56.584Z,15.10
2019-04-07T20:18:29.769Z,15.00
2019-04-07T20:21:01.026Z,14.80
2019-04-07T20:23:35.781Z,14.80
2019-04-07T20:26:10.166Z,14.70
2019-04-07T20:28:47.474Z,14.60
2019-04-07T20:31:34.415Z,14.50
2019-04-07T20:34:06.214Z,14.40
2019-04-07T20:36:38.076Z,14.30
2019-04-07T20:39:12.885Z,14.20
2019-04-07T20:41:53.288Z,14.20
2019-04-07T20:44:30.786Z,14.10
2019-04-07T20:47:13.345Z,14.00
2019-04-07T20:49:51.543Z,13.90
2019-04-07T20:52:25.366Z,13.80
2019-04-07T20:55:12.033Z,13.70
2019-04-07T20:57:54.025Z,13.60
2019-04-07T21:00:29.107Z,13.60
2019-04-07T21:03:14.141Z,13.50
2019-04-07T21:05:55.664Z,13.40
2019-04-07T21:08:31.122Z,13.40
2019-04-07T21:11:04.688Z,13.30
2019-04-07T21:13:38.084Z,13.20
2019-04-07T21:16:10.211Z,13.20
2019-04-07T21:18:50.913Z,13.10
2019-04-07T21:21:29.105Z,13.10
2019-04-07T21:24:01.527Z,13.10
2019-04-07T21:26:39.191Z,13.10
2019-04-07T21:29:11.276Z,13.10
2019-04-07T21:31:48.817Z,13.10
2019-04-07T21:34:21.213Z,13.10
2019-04-07T21:36:53.764Z,13.20
2019-04-07T21:39:29.492Z,13.20
2019-04-07T21:42:01.764Z,13.20
2019-04-07T21:44:45.718Z,13.20
2019-04-07T21:47:25.298Z,13.30
2019-04-07T21:49:56.287Z,13.30
2019-04-07T21:52:30.485Z,13.30
2019-04-07T21:55:01.897Z,13.30
2019-04-07T22:00:27.057Z,13.40
2019-04-07T22:02:59.882Z,13.40
2019-04-07T22:05:41.211Z,13.40
2019-04-07T22:08:17.266Z,13.40
2019-04-07T22:10:44.820Z,13.50
2019-04-07T22:13:15.360Z,13.40
2019-04-07T22:15:49.351Z,13.50
2019-04-07T22:18:17.368Z,13.50
2019-04-07T22:20:47.923Z,13.50
2019-04-07T22:23:18.957Z,13.50
2019-04-07T22:25:51.972Z,13.50
2019-04-07T22:28:22.648Z,13.50
2019-04-07T22:30:55.260Z,13.50
2019-04-07T22:33:26.077Z,13.50
2019-04-07T22:35:57.496Z,13.60
2019-04-07T22:38:27.465Z,13.50
2019-04-07T22:40:58.512Z,13.60
2019-04-07T22:43:28.318Z,13.60
2019-04-07T22:46:07.648Z,13.60
2019-04-07T22:48:29.689Z,13.60
2019-04-07T22:50:59.547Z,13.60
2019-04-07T22:53:31.330Z,13.60
2019-04-07T22:56:04.803Z,13.60
2019-04-07T22:58:32.402Z,13.60
2019-04-07T23:01:02.725Z,13.60
2019-04-07T23:03:33.325Z,13.60
2019-04-07T23:06:03.170Z,13.60
2019-04-07T23:08:33.172Z,13.60
2019-04-07T23:11:03.049Z,13.70
2019-04-07T23:13:32.857Z,13.70
2019-04-07T23:16:11.342Z,13.70
2019-04-07T23:18:34.972Z,13.70
2019-04-07T23:21:05.222Z,13.70
2019-04-07T23:23:35.082Z,13.70
2019-04-07T23:26:05.467Z,13.70
2019-04-07T23:28:35.346Z,13.70
2019-04-07T23:31:05.499Z,13.70
2019-04-07T23:33:36.163Z,13.70
2019-04-07T23:36:06.956Z,13.60
2019-04-07T23:38:37.018Z,13.60
2019-04-07T23:41:06.857Z,13.60
2019-04-07T23:43:37.458Z,13.60
2019-04-07T23:46:18.772Z,13.60
2019-04-07T23:48:40.256Z,13.70
2019-04-07T23:51:10.310Z,13.70
2019-04-07T23:54:08.698Z,13.70
2019-04-07T23:56:41.352Z,13.60
2019-04-07T23:59:11.488Z,13.70
